Time;durP1;ratioP1;P1;durP2;ratioP2;P2;SDS_P1;SDS_P2;PMS_P1;PMS_P2;Temp;Humidity;BMP_temperature;BMP_pressure;BME280_temperature;BME280_humidity;BME280_pressure;Samples;Min_cycle;Max_cycle;Signal;HPM_P1;HPM_P2
2022/01/02 00:01:12;;;;;;;11.32;3.83;;;;;;;10.06;100.00;101077.41;5024134;28;20033;-85
2022/01/02 00:03:40;;;;;;;9.32;4.28;;;;;;;10.08;100.00;101083.44;5014467;28;20029;-85
2022/01/02 00:06:07;;;;;;;9.63;3.90;;;;;;;10.14;100.00;101077.50;5022890;28;20030;-86
2022/01/02 00:08:41;;;;;;;7.60;3.60;;;;;;;10.20;100.00;101080.56;5038459;28;20048;-85
2022/01/02 00:11:12;;;;;;;16.38;3.88;;;;;;;10.12;100.00;101055.47;5026962;28;20113;-85
2022/01/02 00:13:47;;;;;;;14.82;4.22;;;;;;;10.24;100.00;101057.91;5026971;28;20045;-85
2022/01/02 00:16:16;;;;;;;8.70;3.65;;;;;;;10.13;100.00;101033.13;5019113;28;20030;-85
2022/01/02 00:18:49;;;;;;;9.93;4.30;;;;;;;10.14;100.00;101040.16;5017756;28;20065;-85
2022/01/02 00:21:16;;;;;;;8.48;3.65;;;;;;;10.12;100.00;101034.13;5002802;28;20034;-85
2022/01/02 00:23:59;;;;;;;9.77;3.30;;;;;;;10.09;100.00;101028.25;5013348;28;20021;-85
2022/01/02 00:26:35;;;;;;;12.95;4.05;;;;;;;10.16;100.00;101053.34;4996864;28;20034;-85
2022/01/02 00:29:04;;;;;;;5.35;3.17;;;;;;;10.11;100.00;101064.47;5012095;28;20041;-85
2022/01/02 00:31:31;;;;;;;12.18;4.28;;;;;;;10.07;100.00;101068.44;5004641;28;20018;-85
2022/01/02 00:33:56;;;;;;;6.53;3.38;;;;;;;10.11;100.00;101061.81;5011850;28;20037;-86
2022/01/02 00:36:22;;;;;;;7.80;4.07;;;;;;;10.16;100.00;101056.03;4995518;28;20029;-85
2022/01/02 00:38:48;;;;;;;14.60;4.57;;;;;;;10.07;100.00;101044.41;5027419;28;20034;-85
2022/01/02 00:41:21;;;;;;;6.63;3.53;;;;;;;10.08;100.00;101048.75;5027530;28;20033;-84
2022/01/02 00:43:53;;;;;;;10.68;4.13;;;;;;;10.07;100.00;101033.75;5001907;28;20065;-86
2022/01/02 00:46:21;;;;;;;10.30;4.93;;;;;;;10.00;100.00;101030.00;4990557;28;20042;-85
2022/01/02 00:48:47;;;;;;;8.63;4.07;;;;;;;10.03;100.00;101061.72;4994144;28;20018;-85
2022/01/02 00:51:28;;;;;;;6.30;4.00;;;;;;;10.05;100.00;101065.06;5026124;28;20448;-85
2022/01/02 00:53:56;;;;;;;11.25;4.25;;;;;;;10.01;100.00;101070.84;5001398;28;20073;-84
2022/01/02 00:56:26;;;;;;;7.13;4.53;;;;;;;9.92;100.00;101069.94;5026937;28;20030;-85
2022/01/02 00:58:57;;;;;;;14.07;4.95;;;;;;;9.84;100.00;101067.19;5026702;28;20091;-84
2022/01/02 01:01:27;;;;;;;9.05;4.07;;;;;;;9.81;100.00;101080.78;5015436;28;20828;-85
2022/01/02 01:03:54;;;;;;;6.38;4.05;;;;;;;9.85;100.00;101079.50;5018607;28;20034;-85
2022/01/02 01:06:25;;;;;;;12.00;5.65;;;;;;;9.79;100.00;101082.78;5017934;28;20041;-85
2022/01/02 01:08:57;;;;;;;9.55;4.97;;;;;;;9.86;100.00;101071.38;5025758;28;20594;-85
2022/01/02 01:11:27;;;;;;;10.20;4.63;;;;;;;9.90;100.00;101082.56;5026173;28;20883;-85
2022/01/02 01:13:55;;;;;;;10.23;4.93;;;;;;;9.82;100.00;101069.16;5025528;28;20030;-85
2022/01/02 01:16:21;;;;;;;11.35;4.93;;;;;;;9.80;100.00;101065.78;5018095;28;20083;-85
2022/01/02 01:18:47;;;;;;;16.42;5.57;;;;;;;9.75;100.00;101068.06;4992997;28;20060;-86
2022/01/02 01:21:12;;;;;;;10.95;5.05;;;;;;;9.73;100.00;101066.38;5017706;28;20025;-85
2022/01/02 01:23:39;;;;;;;14.07;5.30;;;;;;;9.70;100.00;101072.03;5018689;28;20109;-86
2022/01/02 01:26:07;;;;;;;9.82;5.80;;;;;;;9.64;100.00;101045.94;5026488;28;20514;-84
2022/01/02 01:28:32;;;;;;;12.68;5.53;;;;;;;9.68;100.00;101055.34;5009681;28;20030;-85
2022/01/02 01:30:58;;;;;;;13.70;6.10;;;;;;;9.66;100.00;101070.63;5017348;28;20390;-85
2022/01/02 01:33:23;;;;;;;14.77;5.60;;;;;;;9.59;100.00;101063.38;5026360;28;20038;-84
2022/01/02 01:35:49;;;;;;;8.73;5.00;;;;;;;9.66;100.00;101075.13;5009103;28;20032;-85
2022/01/02 01:38:14;;;;;;;12.80;5.28;;;;;;;9.58;100.00;101067.06;5017792;28;20190;-85
2022/01/02 01:40:51;;;;;;;12.07;6.67;;;;;;;9.54;100.00;101057.66;5017313;28;20029;-85
2022/01/02 01:43:23;;;;;;;14.25;6.43;;;;;;;9.49;100.00;101055.44;5025267;28;20052;-85
2022/01/02 01:45:49;;;;;;;14.90;7.38;;;;;;;9.46;100.00;101045.91;5024796;28;20348;-86
2022/01/02 01:48:15;;;;;;;15.48;6.60;;;;;;;9.51;100.00;101038.31;5025214;28;20021;-85
2022/01/02 01:50:42;;;;;;;16.93;6.90;;;;;;;9.47;100.00;101063.56;5016710;28;20041;-85
2022/01/02 01:53:12;;;;;;;15.13;7.10;;;;;;;9.46;100.00;101053.09;5024725;28;20018;-85
2022/01/02 01:55:39;;;;;;;18.25;7.78;;;;;;;9.42;100.00;101051.69;5024694;28;20125;-85
2022/01/02 01:58:06;;;;;;;15.95;7.75;;;;;;;9.47;100.00;101060.06;5025282;28;20109;-85
2022/01/02 02:00:35;;;;;;;18.05;9.20;;;;;;;9.40;100.00;101038.50;5020523;28;20034;-85
2022/01/02 02:03:04;;;;;;;12.15;6.78;;;;;;;9.39;100.00;101036.84;5029434;28;20110;-84
2022/01/02 02:05:31;;;;;;;13.77;8.43;;;;;;;9.38;100.00;101055.63;5020376;28;20120;-85
2022/01/02 02:07:57;;;;;;;16.13;7.03;;;;;;;9.37;100.00;101044.13;5029088;28;20033;-84
2022/01/02 02:10:39;;;;;;;13.80;7.15;;;;;;;9.36;100.00;101060.25;5028847;28;20414;-84
2022/01/02 02:13:07;;;;;;;15.60;8.63;;;;;;;9.37;100.00;101078.78;5021519;28;20499;-84
2022/01/02 02:15:37;;;;;;;20.50;9.00;;;;;;;9.36;100.00;101063.75;5026171;28;20022;-84
2022/01/02 02:18:03;;;;;;;16.47;8.73;;;;;;;9.29;100.00;101068.00;5028706;28;20038;-84
2022/01/02 02:20:32;;;;;;;20.55;7.97;;;;;;;9.27;100.00;101073.50;5019790;28;20738;-83
2022/01/02 02:23:00;;;;;;;19.58;7.90;;;;;;;9.24;100.00;101081.75;5008313;28;20120;-84
2022/01/02 02:25:32;;;;;;;18.33;7.38;;;;;;;9.20;100.00;101069.72;5028138;28;20542;-84
2022/01/02 02:28:14;;;;;;;16.02;8.18;;;;;;;9.19;100.00;101076.03;5028494;28;20037;-84
2022/01/02 02:30:43;;;;;;;20.73;9.23;;;;;;;9.19;100.00;101081.34;5020197;28;20572;-84
2022/01/02 02:33:09;;;;;;;18.70;7.45;;;;;;;9.18;100.00;101076.19;5011926;28;20014;-84
2022/01/02 02:35:37;;;;;;;17.65;8.73;;;;;;;9.18;100.00;101085.03;5026540;28;20113;-84
2022/01/02 02:38:08;;;;;;;17.02;8.10;;;;;;;9.21;100.00;101081.22;4995531;28;20018;-84
2022/01/02 02:40:36;;;;;;;19.27;8.48;;;;;;;9.12;100.00;101080.25;5028030;28;20089;-84
2022/01/02 02:43:09;;;;;;;18.95;9.15;;;;;;;9.09;100.00;101072.56;5003839;28;20026;-85
2022/01/02 02:51:11;;;;;;;17.80;8.43;;;;;;;9.18;100.00;101077.03;5030189;28;20025;-83
2022/01/02 02:53:43;;;;;;;20.40;10.23;;;;;;;9.13;100.00;101063.31;5021401;28;20038;-84
2022/01/02 02:56:18;;;;;;;21.27;10.05;;;;;;;9.15;100.00;101076.47;5007629;28;20060;-86
2022/01/02 02:58:52;;;;;;;23.80;10.75;;;;;;;9.13;100.00;101062.44;5028072;28;20034;-85
2022/01/02 03:01:20;;;;;;;19.50;10.05;;;;;;;9.16;100.00;101063.00;5026991;28;20046;-85
2022/01/02 03:03:47;;;;;;;19.25;10.85;;;;;;;9.11;100.00;101059.94;5029044;28;20113;-85
2022/01/02 03:06:14;;;;;;;19.60;10.13;;;;;;;9.09;100.00;101040.59;5005253;28;20588;-85
2022/01/02 03:08:41;;;;;;;22.55;11.65;;;;;;;9.15;100.00;101050.66;5028886;28;20168;-85
2022/01/02 03:11:13;;;;;;;27.08;12.52;;;;;;;9.19;100.00;101045.91;5028787;28;20025;-84
2022/01/02 03:13:38;;;;;;;21.65;11.27;;;;;;;9.16;100.00;101031.03;5029319;28;20056;-85
2022/01/02 03:16:04;;;;;;;22.77;11.18;;;;;;;9.16;100.00;101028.38;5029239;28;20419;-86
2022/01/02 03:18:30;;;;;;;22.92;13.07;;;;;;;9.08;100.00;101017.59;5028957;28;20092;-85
2022/01/02 03:20:55;;;;;;;27.37;13.27;;;;;;;9.13;100.00;101025.16;5020371;28;20037;-85
2022/01/02 03:23:20;;;;;;;25.00;13.13;;;;;;;9.13;100.00;101015.38;5029840;28;20285;-85
2022/01/02 03:25:47;;;;;;;22.88;13.02;;;;;;;9.12;100.00;101016.34;5012193;28;20269;-85
2022/01/02 03:28:12;;;;;;;27.67;14.47;;;;;;;9.08;100.00;100996.28;5021167;28;20025;-85
2022/01/02 03:30:38;;;;;;;24.90;13.67;;;;;;;9.16;100.00;100991.09;5020234;28;20029;-84
2022/01/02 03:33:03;;;;;;;27.95;14.82;;;;;;;9.05;100.00;100977.94;5029010;28;20061;-85
2022/01/02 03:35:29;;;;;;;26.13;15.27;;;;;;;9.05;100.00;100986.78;5028385;28;20550;-86
2022/01/02 03:37:55;;;;;;;27.93;15.43;;;;;;;9.17;100.00;101000.75;5029201;28;20436;-84
2022/01/02 03:40:20;;;;;;;35.35;14.93;;;;;;;9.18;100.00;100996.28;5020898;28;20360;-85
2022/01/02 03:42:46;;;;;;;29.70;13.85;;;;;;;9.14;100.00;100978.91;5005144;28;20038;-86
2022/01/02 03:45:12;;;;;;;32.05;14.55;;;;;;;9.13;100.00;100994.06;5020740;28;20056;-86
2022/01/02 03:47:38;;;;;;;27.75;14.93;;;;;;;9.07;100.00;100992.81;5029229;28;20632;-84
2022/01/02 03:50:06;;;;;;;27.25;15.07;;;;;;;9.14;100.00;100981.56;5029216;28;20024;-85
2022/01/02 03:52:31;;;;;;;29.27;14.77;;;;;;;9.18;100.00;100973.13;5021794;28;20026;-86
2022/01/02 03:54:57;;;;;;;29.25;15.10;;;;;;;9.14;100.00;100979.75;5028951;28;20029;-85
2022/01/02 03:57:23;;;;;;;29.75;15.88;;;;;;;9.11;100.00;100972.06;5005302;28;20042;-85
2022/01/02 03:59:48;;;;;;;28.45;15.13;;;;;;;9.09;100.00;100960.69;5029352;28;20036;-84
2022/01/02 04:02:14;;;;;;;29.97;16.13;;;;;;;9.09;100.00;100960.69;5021249;28;20108;-85
2022/01/02 04:04:40;;;;;;;;;;;;;;;9.16;100.00;100966.28;5013572;28;20030;-85
2022/01/02 04:07:06;;;;;;;24.55;14.88;;;;;;;9.08;100.00;100951.00;5020908;28;19967;-85
2022/01/02 04:09:32;;;;;;;30.65;16.17;;;;;;;9.13;100.00;100962.09;5029522;28;20109;-85
2022/01/02 04:11:57;;;;;;;34.15;16.20;;;;;;;9.12;100.00;100941.75;5029897;28;20052;-85
2022/01/02 04:14:23;;;;;;;28.20;16.80;;;;;;;9.12;100.00;100947.09;5014017;28;20034;-84
2022/01/02 04:16:49;;;;;;;28.63;15.95;;;;;;;9.21;100.00;100938.19;5030438;28;20056;-85
2022/01/02 04:19:14;;;;;;;30.43;17.80;;;;;;;9.10;100.00;100927.75;5023122;28;20670;-84
2022/01/02 04:21:40;;;;;;;33.87;16.60;;;;;;;9.18;100.00;100927.03;5030176;28;20319;-85
2022/01/02 04:24:06;;;;;;;31.00;16.17;;;;;;;9.19;100.00;100934.84;5040734;28;20025;-83
2022/01/02 04:26:31;;;;;;;34.28;18.98;;;;;;;9.08;100.00;100917.25;5002013;28;20359;-83
2022/01/02 04:28:57;;;;;;;31.83;18.92;;;;;;;8.96;100.00;100914.91;5018730;28;20071;-84
2022/01/02 04:31:23;;;;;;;26.97;16.00;;;;;;;9.03;100.00;100916.00;5026479;28;20109;-84
2022/01/02 04:33:49;;;;;;;40.33;21.40;;;;;;;9.07;100.00;100920.06;5001215;28;20269;-84
2022/01/02 04:36:15;;;;;;;;;;;;;;;9.03;100.00;100919.50;5009347;28;20045;-84
2022/01/02 04:38:42;;;;;;;35.92;19.60;;;;;;;8.99;100.00;100911.94;5023767;28;19909;-84
2022/01/02 04:41:09;;;;;;;33.78;18.52;;;;;;;9.05;100.00;100906.88;5025880;28;20030;-84
2022/01/02 04:43:35;;;;;;;36.30;20.25;;;;;;;9.01;100.00;100904.66;5025784;28;20634;-85
2022/01/02 04:46:00;;;;;;;32.47;18.52;;;;;;;8.96;100.00;100898.94;5017959;28;20026;-84
2022/01/02 04:48:26;;;;;;;41.58;21.45;;;;;;;9.01;100.00;100916.19;5009722;28;20045;-84
2022/01/02 04:50:52;;;;;;;40.65;20.45;;;;;;;8.94;100.00;100899.09;5017777;28;20038;-85
2022/01/02 04:53:20;;;;;;;47.73;20.83;;;;;;;9.00;100.00;100895.00;5026106;28;20045;-85
2022/01/02 04:55:45;;;;;;;39.38;20.42;;;;;;;9.02;100.00;100903.69;5017650;28;20293;-85
2022/01/02 04:58:11;;;;;;;34.27;20.37;;;;;;;8.98;100.00;100889.81;5025695;28;20029;-85
2022/01/02 05:00:36;;;;;;;35.60;20.73;;;;;;;9.06;100.00;100886.41;5008997;28;20038;-85
2022/01/02 05:03:02;;;;;;;38.55;20.42;;;;;;;9.01;100.00;100888.69;5026004;28;20116;-85
2022/01/02 05:05:28;;;;;;;33.75;17.98;;;;;;;9.08;100.00;100892.41;5025386;28;20042;-84
2022/01/02 05:07:54;;;;;;;;;;;;;;;9.12;100.00;100899.13;5017656;28;20030;-85
2022/01/02 05:10:20;;;;;;;;;;;;;;;9.10;100.00;100893.13;5025534;28;19917;-83
2022/01/02 05:12:45;;;;;;;31.97;16.43;;;;;;;9.09;100.00;100883.47;4999626;28;19910;-85
2022/01/02 05:15:11;;;;;;;36.50;19.13;;;;;;;9.05;100.00;100866.94;5025039;28;20040;-85
2022/01/02 05:17:36;;;;;;;38.50;20.30;;;;;;;9.03;100.00;100870.72;5025500;28;20120;-84
2022/01/02 05:20:03;;;;;;;37.77;19.57;;;;;;;9.04;100.00;100865.25;5001282;28;20029;-85
2022/01/02 05:22:29;;;;;;;34.90;20.52;;;;;;;9.07;100.00;100853.47;5017038;28;20125;-84
2022/01/02 05:24:54;;;;;;;35.00;18.80;;;;;;;9.06;100.00;100857.97;5000136;28;20047;-85
2022/01/02 05:27:20;;;;;;;35.27;19.23;;;;;;;9.01;100.00;100843.41;5024981;28;20021;-85
2022/01/02 05:29:47;;;;;;;32.28;18.83;;;;;;;9.14;100.00;100853.72;5024754;28;20037;-85
2022/01/02 05:32:12;;;;;;;30.57;18.33;;;;;;;9.12;100.00;100840.53;5000410;28;20446;-85
2022/01/02 05:34:37;;;;;;;37.17;20.10;;;;;;;9.11;100.00;100830.88;5010735;28;20053;-85
2022/01/02 05:37:05;;;;;;;36.85;19.45;;;;;;;9.15;100.00;100842.88;5025700;28;20026;-85
2022/01/02 05:39:32;;;;;;;40.05;20.13;;;;;;;9.11;100.00;100846.88;4997849;28;20037;-85
2022/01/02 05:41:57;;;;;;;31.88;18.63;;;;;;;9.10;100.00;100842.50;5008920;28;20022;-85
2022/01/02 05:44:24;;;;;;;29.88;18.33;;;;;;;9.05;100.00;100839.47;5025097;28;20519;-84
2022/01/02 05:46:49;;;;;;;29.00;17.80;;;;;;;9.03;100.00;100823.63;5001805;28;20064;-85
2022/01/02 05:49:16;;;;;;;33.33;18.90;;;;;;;9.10;100.00;100829.19;5011606;28;20415;-85
2022/01/02 05:51:42;;;;;;;28.98;18.35;;;;;;;9.12;100.00;100821.91;5009302;28;20021;-84
2022/01/02 05:54:07;;;;;;;26.47;17.57;;;;;;;8.99;100.00;100800.97;5017280;28;20419;-85
2022/01/02 05:56:34;;;;;;;35.38;19.95;;;;;;;9.14;100.00;100819.09;4997157;28;20117;-84
2022/01/02 05:58:59;;;;;;;28.80;18.45;;;;;;;9.20;100.00;100829.13;5008714;28;20037;-84
2022/01/02 06:01:25;;;;;;;34.13;19.25;;;;;;;9.11;100.00;100808.72;5001926;28;20537;-84
2022/01/02 06:03:52;;;;;;;;;;;;;;;9.16;100.00;100811.78;5003585;28;20040;-84
2022/01/02 06:06:18;;;;;;;35.88;18.98;;;;;;;9.19;100.00;100820.28;5020611;28;19917;-85
2022/01/02 06:08:43;;;;;;;40.05;20.00;;;;;;;9.07;100.00;100814.34;5025486;28;20064;-83
2022/01/02 06:11:09;;;;;;;34.80;19.80;;;;;;;9.17;100.00;100824.09;5027968;28;20014;-81
2022/01/02 06:13:34;;;;;;;38.40;20.37;;;;;;;9.16;100.00;100817.13;5027585;28;20034;-84
2022/01/02 06:16:00;;;;;;;33.78;20.35;;;;;;;9.13;100.00;100807.59;5017468;28;20308;-84
2022/01/02 06:18:28;;;;;;;39.15;19.63;;;;;;;9.14;100.00;100809.25;4985087;28;20030;-85
2022/01/02 06:20:54;;;;;;;42.10;21.03;;;;;;;9.00;100.00;100783.16;5002400;28;20037;-84
2022/01/02 06:23:20;;;;;;;36.92;22.23;;;;;;;9.07;100.00;100787.72;5011736;28;20569;-85
2022/01/02 06:25:45;;;;;;;32.53;20.20;;;;;;;9.19;100.00;100791.00;5008463;28;20025;-85
2022/01/02 06:28:12;;;;;;;40.25;20.63;;;;;;;9.15;100.00;100794.94;5023985;28;20056;-85
2022/01/02 06:30:37;;;;;;;;;;;;;;;9.14;100.00;100787.97;5024862;28;20073;-85
2022/01/02 06:33:03;;;;;;;;;;;;;;;9.20;100.00;100798.00;5010542;28;19960;-84
2022/01/02 06:35:31;;;;;;;42.15;20.27;;;;;;;9.07;100.00;100765.59;4992127;28;19916;-84
2022/01/02 06:37:57;;;;;;;35.58;21.10;;;;;;;9.15;100.00;100789.63;5003541;28;20087;-84
2022/01/02 06:40:23;;;;;;;38.53;20.53;;;;;;;9.16;100.00;100785.97;5012338;28;20026;-84
2022/01/02 06:42:49;;;;;;;;;;;;;;;9.22;100.00;100801.34;5009037;28;20045;-84
2022/01/02 06:45:15;;;;;;;36.22;19.98;;;;;;;9.20;100.00;100802.47;5013456;28;19915;-84
2022/01/02 06:47:42;;;;;;;34.50;19.08;;;;;;;9.15;100.00;100800.28;5016103;28;20524;-85
2022/01/02 06:50:09;;;;;;;35.17;19.00;;;;;;;9.13;100.00;100796.94;5028647;28;20029;-84
2022/01/02 06:52:34;;;;;;;34.95;19.27;;;;;;;8.98;100.00;100779.81;5029258;28;20479;-84
2022/01/02 06:55:00;;;;;;;30.63;18.00;;;;;;;9.06;100.00;100795.84;5019354;28;20045;-85
2022/01/02 06:57:26;;;;;;;26.80;17.20;;;;;;;9.01;100.00;100787.47;5020865;28;20065;-86
2022/01/02 06:59:51;;;;;;;32.60;18.00;;;;;;;8.96;100.00;100779.94;5012767;28;20033;-85
2022/01/02 07:02:18;;;;;;;24.98;15.75;;;;;;;9.12;100.00;100797.09;5005171;28;20516;-83
2022/01/02 07:04:44;;;;;;;24.67;15.05;;;;;;;9.04;100.00;100789.88;5005438;28;20061;-85
2022/01/02 07:07:16;;;;;;;22.77;15.07;;;;;;;8.94;100.00;100771.28;5029377;28;20491;-84
2022/01/02 07:09:42;;;;;;;24.42;15.23;;;;;;;9.03;100.00;100785.50;5012315;28;20124;-85
2022/01/02 07:12:07;;;;;;;23.60;14.87;;;;;;;9.04;100.00;100784.53;5001533;28;20041;-84
2022/01/02 07:14:33;;;;;;;22.97;13.93;;;;;;;9.08;100.00;100788.56;5012849;28;20030;-83
2022/01/02 07:16:59;;;;;;;22.60;14.07;;;;;;;9.08;100.00;100793.88;4996472;28;20045;-85
2022/01/02 07:19:24;;;;;;;23.92;13.40;;;;;;;9.06;100.00;100777.22;5004356;28;20033;-85
2022/01/02 07:21:51;;;;;;;19.60;13.30;;;;;;;9.18;100.00;100784.00;5004840;28;20037;-85
2022/01/02 07:24:17;;;;;;;19.70;12.35;;;;;;;9.07;100.00;100774.41;5021321;28;20503;-85
2022/01/02 07:26:42;;;;;;;16.88;11.38;;;;;;;9.13;100.00;100772.97;5021444;28;20018;-83
2022/01/02 07:29:09;;;;;;;19.17;12.47;;;;;;;9.12;100.00;100767.78;4997348;28;20059;-84
2022/01/02 07:31:37;;;;;;;17.45;11.38;;;;;;;9.10;100.00;100762.59;5001651;28;20026;-85
2022/01/02 07:34:04;;;;;;;17.17;10.43;;;;;;;9.11;100.00;100766.09;5020300;28;20045;-87
2022/01/02 07:36:30;;;;;;;22.77;13.48;;;;;;;9.05;100.00;100760.41;5028957;28;20057;-86
2022/01/02 07:38:55;;;;;;;20.45;11.65;;;;;;;9.04;100.00;100756.06;5028743;28;20065;-87
2022/01/02 07:41:21;;;;;;;19.33;11.27;;;;;;;9.11;100.00;100766.97;5020368;28;20076;-86
2022/01/02 07:43:46;;;;;;;19.08;12.43;;;;;;;9.15;100.00;100764.81;5014358;28;20042;-85
2022/01/02 07:46:12;;;;;;;17.47;11.53;;;;;;;9.15;100.00;100770.13;5005677;28;20140;-86
2022/01/02 07:48:37;;;;;;;19.10;11.67;;;;;;;9.06;100.00;100754.09;5030226;28;20735;-85
2022/01/02 07:51:02;;;;;;;18.57;11.57;;;;;;;9.13;100.00;100764.13;5030655;28;20804;-84
2022/01/02 07:53:28;;;;;;;19.50;12.13;;;;;;;9.02;100.00;100736.75;5016271;28;20076;-84
2022/01/02 07:55:53;;;;;;;20.20;12.00;;;;;;;9.05;100.00;100743.59;5031874;28;20022;-85
2022/01/02 07:58:18;;;;;;;15.87;10.73;;;;;;;9.15;100.00;100743.50;5032969;28;20111;-85
2022/01/02 08:00:44;;;;;;;19.17;11.73;;;;;;;9.08;100.00;100724.63;5014398;28;20045;-85
2022/01/02 08:03:10;;;;;;;20.60;12.20;;;;;;;9.10;100.00;100722.66;5018674;28;20038;-86
2022/01/02 08:05:35;;;;;;;19.17;11.15;;;;;;;9.16;100.00;100738.03;5020339;28;20026;-85
2022/01/02 08:08:00;;;;;;;18.03;11.13;;;;;;;9.12;100.00;100725.19;5013872;28;20060;-86
2022/01/02 08:10:27;;;;;;;21.30;13.40;;;;;;;9.09;100.00;100721.00;5002314;28;20064;-85
2022/01/02 08:12:53;;;;;;;16.30;12.23;;;;;;;9.14;100.00;100724.03;5018841;28;20033;-85
2022/01/02 08:15:19;;;;;;;;;;;;;;;9.19;100.00;100719.06;5002717;28;20133;-85
2022/01/02 08:17:44;;;;;;;;;;;;;;;9.25;100.00;100707.81;5012433;28;19967;-87
2022/01/02 08:20:09;;;;;;;19.83;12.07;;;;;;;9.16;100.00;100694.59;5019906;28;19913;-86
2022/01/02 08:22:36;;;;;;;18.77;12.52;;;;;;;9.03;100.00;100685.16;5002066;28;20042;-86
2022/01/02 08:25:03;;;;;;;18.77;11.60;;;;;;;9.14;100.00;100708.03;5018468;28;20060;-87
2022/01/02 08:27:29;;;;;;;22.95;13.68;;;;;;;9.05;100.00;100693.81;5018878;28;20040;-86
2022/01/02 08:29:55;;;;;;;20.48;12.45;;;;;;;9.18;100.00;100709.41;5001373;28;20431;-87
2022/01/02 08:32:20;;;;;;;21.02;12.93;;;;;;;9.06;100.00;100682.19;5026715;28;20034;-85
2022/01/02 08:34:46;;;;;;;19.25;12.23;;;;;;;9.21;100.00;100693.13;5009998;28;20117;-86
2022/01/02 08:37:14;;;;;;;22.73;13.43;;;;;;;9.16;100.00;100679.44;5001913;28;20033;-85
2022/01/02 08:39:42;;;;;;;21.55;13.95;;;;;;;9.12;100.00;100667.41;5034414;28;20023;-85
2022/01/02 08:42:08;;;;;;;21.70;12.85;;;;;;;9.19;100.00;100679.13;5020247;28;20049;-85
2022/01/02 08:44:34;;;;;;;19.90;13.27;;;;;;;9.22;100.00;100686.78;5019261;28;20025;-86
2022/01/02 08:46:59;;;;;;;23.52;13.18;;;;;;;9.17;100.00;100673.09;5011417;28;20372;-86
2022/01/02 08:49:34;;;;;;;23.30;14.73;;;;;;;9.15;100.00;100674.25;4995724;28;20026;-85
2022/01/02 08:52:00;;;;;;;22.02;14.18;;;;;;;9.19;100.00;100686.28;5026904;28;20088;-84
2022/01/02 08:54:27;;;;;;;21.95;12.90;;;;;;;9.07;100.00;100672.38;5026946;28;20107;-85
2022/01/02 08:56:52;;;;;;;21.87;13.53;;;;;;;9.05;100.00;100671.69;5005437;28;20042;-85
2022/01/02 08:59:24;;;;;;;20.70;13.57;;;;;;;9.14;100.00;100689.41;5026981;28;20046;-86
2022/01/02 09:01:49;;;;;;;21.42;14.23;;;;;;;9.15;100.00;100691.06;5003132;28;20057;-87
2022/01/02 09:04:15;;;;;;;25.35;15.32;;;;;;;9.21;100.00;100693.13;5002169;28;20022;-87
2022/01/02 09:06:43;;;;;;;22.57;13.93;;;;;;;9.19;100.00;100681.78;5027410;28;20410;-88
2022/01/02 09:09:08;;;;;;;20.10;13.55;;;;;;;9.17;100.00;100681.09;5025391;28;20562;-86
2022/01/02 09:11:33;;;;;;;21.40;13.88;;;;;;;9.22;100.00;100678.78;4993792;28;20025;-86
2022/01/02 09:14:00;;;;;;;22.53;13.87;;;;;;;9.15;100.00;100667.09;4998344;28;20515;-87
2022/01/02 09:16:27;;;;;;;20.58;13.15;;;;;;;9.16;100.00;100671.44;5026016;28;20026;-87
2022/01/02 09:18:52;;;;;;;;;;;;;;;9.27;100.00;100681.84;5029584;28;20551;-86
2022/01/02 09:21:17;;;;;;;20.05;11.80;;;;;;;9.21;100.00;100661.16;5012225;28;19967;-85
2022/01/02 09:23:43;;;;;;;15.20;10.07;;;;;;;9.24;100.00;100663.50;4989743;28;20372;-85
2022/01/02 09:26:09;;;;;;;17.40;12.37;;;;;;;9.21;100.00;100665.66;5018865;28;20053;-86
2022/01/02 09:28:35;;;;;;;13.95;11.02;;;;;;;9.28;100.00;100678.19;4997137;28;20068;-86
2022/01/02 09:31:00;;;;;;;18.57;11.77;;;;;;;9.20;100.00;100667.47;5017620;28;20072;-86
2022/01/02 09:33:26;;;;;;;15.27;10.23;;;;;;;9.26;100.00;100674.00;5032189;28;20091;-86
2022/01/02 09:35:51;;;;;;;15.73;11.13;;;;;;;9.26;100.00;100671.34;5030708;28;20033;-86
2022/01/02 09:38:16;;;;;;;14.07;9.73;;;;;;;9.23;100.00;100666.34;5021617;28;20045;-87
2022/01/02 09:40:42;;;;;;;19.80;10.13;;;;;;;9.29;100.00;100655.03;5017967;28;20046;-86
2022/01/02 09:43:07;;;;;;;15.37;9.13;;;;;;;9.21;100.00;100634.50;5017670;28;20920;-85
2022/01/02 09:45:38;;;;;;;15.70;9.47;;;;;;;9.32;100.00;100648.56;4999003;28;20041;-84
2022/01/02 09:48:05;;;;;;;13.75;10.35;;;;;;;9.23;100.00;100629.03;5030816;28;20033;-86
2022/01/02 09:50:32;;;;;;;15.77;10.48;;;;;;;9.11;100.00;100606.28;5031905;28;20509;-86
2022/01/02 09:52:58;;;;;;;17.10;9.77;;;;;;;9.23;100.00;100607.72;4998023;28;20040;-86
2022/01/02 09:55:40;;;;;;;17.63;10.27;;;;;;;9.28;100.00;100603.59;4999360;28;20083;-88
2022/01/02 09:58:13;;;;;;;17.65;10.43;;;;;;;9.26;100.00;100608.22;5004206;28;20038;-87
2022/01/02 10:00:43;;;;;;;17.20;10.73;;;;;;;9.30;100.00;100627.41;4989785;28;20030;-88
2022/01/02 10:03:10;;;;;;;18.90;10.82;;;;;;;9.35;100.00;100629.63;5015189;28;20117;-87
2022/01/02 10:05:56;;;;;;;18.05;11.52;;;;;;;9.34;100.00;100617.28;4999328;28;20037;-88
2022/01/02 10:08:26;;;;;;;20.17;11.68;;;;;;;9.35;100.00;100602.97;5018570;28;20445;-87
2022/01/02 10:11:25;;;;;;;17.02;10.82;;;;;;;9.38;100.00;100597.31;5008545;28;20030;-87
2022/01/02 10:14:01;;;;;;;22.27;11.68;;;;;;;9.37;100.00;100595.66;5021631;28;20029;-87
2022/01/02 10:16:26;;;;;;;;;;;;;;;9.42;100.00;100599.50;5025189;28;20034;-86
2022/01/02 10:18:52;;;;;;;;;;;;;;;9.44;100.00;100602.84;5013544;28;19996;-87
2022/01/02 10:21:34;;;;;;;19.27;11.35;;;;;;;9.50;100.00;100596.03;5021842;28;19929;-86
2022/01/02 10:24:10;;;;;;;22.23;14.02;;;;;;;9.44;100.00;100592.19;5012444;28;20069;-87
2022/01/02 10:26:35;;;;;;;22.60;12.15;;;;;;;9.40;100.00;100577.50;5010921;28;20038;-87
2022/01/02 10:29:10;;;;;;;28.63;15.57;;;;;;;9.38;100.00;100554.69;5008568;28;20029;-87
2022/01/02 10:31:37;;;;;;;31.27;14.80;;;;;;;9.28;100.00;100542.31;5027410;28;20036;-87
2022/01/02 10:34:03;;;;;;;25.13;12.98;;;;;;;9.20;100.00;100536.97;5029679;28;20638;-87
2022/01/02 10:36:40;;;;;;;28.37;13.70;;;;;;;9.12;100.00;100518.25;5004929;28;20026;-88
2022/01/02 10:39:12;;;;;;;19.00;13.38;;;;;;;9.34;100.00;100540.00;5015145;28;20060;-87
2022/01/02 10:41:51;;;;;;;20.92;13.38;;;;;;;9.56;100.00;100547.44;5002262;28;20045;-86
2022/01/02 10:44:35;;;;;;;21.98;12.38;;;;;;;9.67;100.00;100533.81;5022829;28;20029;-87
2022/01/02 10:47:21;;;;;;;22.60;12.52;;;;;;;9.73;100.00;100527.00;5022109;28;20526;-87
2022/01/02 10:50:01;;;;;;;17.15;10.80;;;;;;;9.78;100.00;100514.00;5012204;28;20334;-86
2022/01/02 10:52:30;;;;;;;16.33;10.23;;;;;;;9.88;100.00;100484.53;5003808;28;20033;-86
2022/01/02 10:54:58;;;;;;;17.80;9.52;;;;;;;9.84;100.00;100462.72;5021377;28;20060;-86
2022/01/02 10:57:24;;;;;;;15.75;9.18;;;;;;;9.86;100.00;100451.88;5018990;28;20099;-84
2022/01/02 10:59:55;;;;;;;17.17;10.63;;;;;;;9.86;100.00;100431.38;5012233;28;20021;-86
2022/01/02 11:02:24;;;;;;;16.63;8.43;;;;;;;9.91;100.00;100409.56;5033333;28;20503;-85
2022/01/02 11:05:03;;;;;;;15.63;9.02;;;;;;;9.94;100.00;100398.53;5009393;28;20018;-85
2022/01/02 11:07:38;;;;;;;19.80;9.32;;;;;;;9.89;100.00;100376.88;5014658;28;20126;-84
2022/01/02 11:10:04;;;;;;;14.70;7.53;;;;;;;9.87;100.00;100344.22;5007575;28;20096;-86
2022/01/02 11:12:32;;;;;;;14.43;7.65;;;;;;;9.87;100.00;100338.88;5018739;28;20018;-85
2022/01/02 11:15:00;;;;;;;14.02;7.03;;;;;;;9.86;100.00;100314.06;5010799;28;20025;-87
2022/01/02 11:17:27;;;;;;;14.38;6.53;;;;;;;9.88;100.00;100311.22;5036415;28;20025;-87
2022/01/02 11:19:52;;;;;;;;;;;;;;;9.93;100.00;100298.22;5034215;28;20084;-88
2022/01/02 11:22:26;;;;;;;11.48;5.13;;;;;;;9.81;100.00;100267.56;5021245;28;19925;-88